Time;durP1;ratioP1;P1;durP2;ratioP2;P2;SDS_P1;SDS_P2;PMS_P1;PMS_P2;Temp;Humidity;BMP_temperature;BMP_pressure;BME280_temperature;BME280_humidity;BME280_pressure;Samples;Min_cycle;Max_cycle;Signal;HPM_P1;HPM_P2
2021/04/22 00:02:09;;;;;;;;;;;;;;;19.21;66.38;101204.66;5064071;28;1503;-43
2021/04/22 00:04:35;;;;;;;;;;;;;;;19.20;67.01;101200.25;5067253;28;1771;-44
2021/04/22 00:07:02;;;;;;;;;;;;;;;19.19;67.01;101202.09;5060376;28;1822;-44
2021/04/22 00:09:27;;;;;;;;;;;;;;;19.18;66.89;101199.53;5062907;28;1637;-43
2021/04/22 00:11:53;;;;;;;;;;;;;;;19.17;66.71;101212.09;5062252;28;1742;-43
2021/04/22 00:14:20;;;;;;;;;;;;;;;19.17;67.24;101209.41;5060429;28;1985;-43
2021/04/22 00:16:46;;;;;;;;;;;;;;;19.15;66.67;101223.91;5064872;28;1695;-43
2021/04/22 00:19:12;;;;;;;;;;;;;;;19.15;67.02;101223.91;5062910;28;1063;-43
2021/04/22 00:21:38;;;;;;;;;;;;;;;19.16;66.77;101220.25;5056860;28;1634;-43
2021/04/22 00:24:05;;;;;;;;;;;;;;;19.13;66.80;101225.88;5065427;28;1585;-43
2021/04/22 00:26:31;;;;;;;;;;;;;;;19.12;66.79;101226.84;5064312;28;1644;-43
2021/04/22 00:28:57;;;;;;;;;;;;;;;19.14;67.11;101224.88;5064436;28;1656;-44
2021/04/22 00:31:23;;;;;;;;;;;;;;;19.11;66.66;101217.94;5062743;28;1623;-43
2021/04/22 00:33:49;;;;;;;;;;;;;;;19.10;66.87;101221.63;5063692;28;1905;-43
2021/04/22 00:36:15;;;;;;;;;;;;;;;19.10;66.78;101228.78;5055690;28;1642;-43
2021/04/22 00:38:41;;;;;;;;;;;;;;;19.10;66.70;101212.72;5064113;28;1624;-43
2021/04/22 00:41:09;;;;;;;;;;;;;;;19.07;66.85;101214.66;5063250;28;1624;-43
2021/04/22 00:43:35;;;;;;;;;;;;;;;19.10;66.63;101226.09;5062473;28;1625;-43
2021/04/22 00:46:01;;;;;;;;;;;;;;;19.09;66.83;101222.59;5067444;28;1472;-44
2021/04/22 00:48:27;;;;;;;;;;;;;;;19.10;66.68;101218.06;5063817;28;1743;-43
2021/04/22 00:50:55;;;;;;;;;;;;;;;19.10;66.61;101218.06;5055087;28;1639;-43
2021/04/22 00:53:21;;;;;;;;;;;;;;;19.09;66.72;101206.50;5061833;28;1976;-43
2021/04/22 00:55:47;;;;;;;;;;;;;;;19.11;66.53;101215.28;5063080;28;1397;-44
2021/04/22 00:58:14;;;;;;;;;;;;;;;19.12;66.42;101214.31;5065550;28;1003;-43
2021/04/22 01:00:42;;;;;;;;;;;;;;;19.11;66.59;101211.75;5065185;28;1624;-43
2021/04/22 01:03:08;;;;;;;;;;;;;;;19.12;66.68;101221.47;5056533;28;1698;-43
2021/04/22 01:05:35;;;;;;;;;;;;;;;19.10;66.69;101218.06;5062750;28;1620;-44
2021/04/22 01:08:01;;;;;;;;;;;;;;;19.08;66.71;101215.53;5065595;28;1078;-43
2021/04/22 01:10:27;;;;;;;;;;;;;;;19.10;66.63;101223.44;5065473;28;1698;-43
2021/04/22 01:12:53;;;;;;;;;;;;;;;19.07;67.12;101220.03;5066405;28;1702;-43
2021/04/22 01:15:21;;;;;;;;;;;;;;;19.08;66.70;101219.06;5064045;28;1906;-43
2021/04/22 01:17:47;;;;;;;;;;;;;;;19.11;67.10;101222.47;5062630;28;1880;-43
2021/04/22 01:20:14;;;;;;;;;;;;;;;19.11;66.88;101230.50;5057769;28;1151;-44
2021/04/22 01:22:41;;;;;;;;;;;;;;;19.07;66.94;101233.44;5061252;28;1759;-43
2021/04/22 01:25:09;;;;;;;;;;;;;;;19.08;67.51;101232.47;5067536;28;1834;-43
2021/04/22 01:27:35;;;;;;;;;;;;;;;19.06;66.97;101228.22;5062317;28;1259;-43
2021/04/22 01:30:01;;;;;;;;;;;;;;;19.04;66.95;101228.34;5063466;28;1672;-43
2021/04/22 01:32:27;;;;;;;;;;;;;;;19.05;67.10;101218.44;5064404;28;1463;-43
2021/04/22 01:34:53;;;;;;;;;;;;;;;19.04;67.04;101214.94;5062686;28;1898;-43
2021/04/22 01:37:19;;;;;;;;;;;;;;;19.05;66.93;101231.84;5062776;28;2012;-43
2021/04/22 01:39:46;;;;;;;;;;;;;;;19.02;67.03;101221.38;5062515;28;1479;-43
2021/04/22 01:42:12;;;;;;;;;;;;;;;19.02;67.05;101227.59;5062358;28;1621;-43
2021/04/22 01:44:38;;;;;;;;;;;;;;;19.03;67.02;101229.28;5062189;28;1409;-43
2021/04/22 01:47:04;;;;;;;;;;;;;;;19.00;66.93;101229.56;5065350;28;1578;-43
2021/04/22 01:49:30;;;;;;;;;;;;;;;19.02;66.93;101227.59;5062232;28;1175;-43
2021/04/22 01:51:56;;;;;;;;;;;;;;;19.00;67.01;101229.56;5056113;28;1617;-43
2021/04/22 01:54:22;;;;;;;;;;;;;;;18.99;67.12;101227.00;5059755;28;1910;-43
2021/04/22 01:56:49;;;;;;;;;;;;;;;18.99;66.95;101216.28;5060931;28;1797;-43
2021/04/22 01:59:15;;;;;;;;;;;;;;;18.98;67.00;101215.44;5062348;28;1620;-43
2021/04/22 02:01:41;;;;;;;;;;;;;;;18.96;67.15;101219.19;5067350;28;1941;-43
2021/04/22 02:04:07;;;;;;;;;;;;;;;18.99;67.22;101210.91;5065154;28;1833;-43
2021/04/22 02:06:33;;;;;;;;;;;;;;;18.99;66.83;101214.44;5058138;28;1622;-43
2021/04/22 02:08:59;;;;;;;;;;;;;;;19.00;66.93;101216.16;5061879;28;1605;-43
2021/04/22 02:11:25;;;;;;;;;;;;;;;19.00;66.79;101221.53;5071463;22;3725;-59
2021/04/22 02:13:52;;;;;;;;;;;;;;;18.98;66.67;101222.59;5042779;28;1910;-59
2021/04/22 02:16:18;;;;;;;;;;;;;;;19.02;66.26;101224.94;5045713;28;1484;-59
2021/04/22 02:18:44;;;;;;;;;;;;;;;19.00;66.34;101229.56;5043547;28;1233;-59
2021/04/22 02:21:10;;;;;;;;;;;;;;;19.01;66.43;101217.84;5034082;28;1791;-59
2021/04/22 02:23:36;;;;;;;;;;;;;;;19.02;66.64;101227.59;5041623;28;1063;-59
2021/04/22 02:26:02;;;;;;;;;;;;;;;19.00;66.60;101237.59;5043307;28;1729;-59
2021/04/22 02:28:28;;;;;;;;;;;;;;;19.01;66.98;101225.03;5042203;28;1645;-59
2021/04/22 02:30:55;;;;;;;;;;;;;;;18.98;67.07;101236.88;5041617;28;1318;-59
2021/04/22 02:33:21;;;;;;;;;;;;;;;19.04;66.88;101232.84;5045637;28;1906;-59
2021/04/22 02:35:49;;;;;;;;;;;;;;;19.40;66.02;101238.84;5038894;28;1648;-59
2021/04/22 02:38:16;;;;;;;;;;;;;;;20.18;63.50;101239.50;5042900;28;1617;-57
2021/04/22 02:40:43;;;;;;;;;;;;;;;20.68;62.76;101242.34;5047745;28;1448;-57
2021/04/22 02:43:10;;;;;;;;;;;;;;;20.78;61.96;101250.44;5048108;28;1030;-56
2021/04/22 02:45:38;;;;;;;;;;;;;;;20.91;61.43;101251.06;5048190;28;1744;-57
2021/04/22 02:48:05;;;;;;;;;;;;;;;21.02;61.32;101247.41;5050172;28;1486;-56
2021/04/22 02:50:33;;;;;;;;;;;;;;;21.04;60.99;101251.66;5037211;28;1636;-57
2021/04/22 02:52:59;;;;;;;;;;;;;;;21.00;61.72;101268.19;5051472;28;1633;-56
2021/04/22 02:55:25;;;;;;;;;;;;;;;21.08;61.21;101254.06;5047509;28;1977;-57
2021/04/22 02:57:51;;;;;;;;;;;;;;;21.14;60.71;101257.06;5047555;28;1733;-57
2021/04/22 03:00:19;;;;;;;;;;;;;;;21.15;60.57;101250.69;5045002;28;1712;-59
2021/04/22 03:02:45;;;;;;;;;;;;;;;21.17;61.24;101242.47;5054178;28;1708;-59
2021/04/22 03:05:13;;;;;;;;;;;;;;;21.13;61.07;101258.06;5047216;28;1031;-59
2021/04/22 03:07:39;;;;;;;;;;;;;;;21.13;60.78;101257.19;5046906;28;1772;-58
2021/04/22 03:10:06;;;;;;;;;;;;;;;21.18;61.02;101263.00;5046418;28;1696;-58
2021/04/22 03:12:32;;;;;;;;;;;;;;;21.17;60.80;101262.16;5045003;28;1606;-58
2021/04/22 03:14:58;;;;;;;;;;;;;;;21.19;60.41;101253.97;5044736;28;1906;-57
2021/04/22 03:17:25;;;;;;;;;;;;;;;21.23;60.35;101271.53;5049142;28;2011;-58
2021/04/22 03:19:51;;;;;;;;;;;;;;;21.22;60.37;101269.81;5053104;28;1481;-58
2021/04/22 03:22:17;;;;;;;;;;;;;;;21.24;60.42;101270.53;5049294;28;1894;-58
2021/04/22 03:24:44;;;;;;;;;;;;;;;21.30;59.98;101269.97;5044892;28;1458;-58
2021/04/22 03:27:10;;;;;;;;;;;;;;;21.27;60.81;101262.19;5044933;28;1711;-58
2021/04/22 03:29:36;;;;;;;;;;;;;;;21.26;60.36;101266.69;5044591;28;1615;-58
2021/04/22 03:32:02;;;;;;;;;;;;;;;21.40;60.96;101270.84;5044906;28;1251;-58
2021/04/22 03:34:28;;;;;;;;;;;;;;;21.43;60.71;101284.06;5054559;28;1993;-58
2021/04/22 03:36:55;;;;;;;;;;;;;;;21.44;60.49;101282.22;5049023;28;1736;-58
2021/04/22 03:39:22;;;;;;;;;;;;;;;21.49;60.18;101265.63;5044533;28;1570;-58
2021/04/22 03:41:48;;;;;;;;;;;;;;;21.50;60.34;101289.72;5044527;28;1575;-58
2021/04/22 03:44:14;;;;;;;;;;;;;;;21.47;60.58;101295.41;5045825;28;1614;-58
2021/04/22 03:46:40;;;;;;;;;;;;;;;21.47;59.68;101289.13;5046138;28;1426;-58
2021/04/22 03:49:06;;;;;;;;;;;;;;;21.45;60.34;101297.38;5050992;28;1504;-58
2021/04/22 03:51:32;;;;;;;;;;;;;;;21.44;60.34;101312.66;5048621;28;1787;-58
2021/04/22 03:53:59;;;;;;;;;;;;;;;21.44;59.80;101301.88;5045239;28;1973;-58
2021/04/22 03:56:26;;;;;;;;;;;;;;;21.14;61.31;101305.47;5046392;28;1399;-58
2021/04/22 03:58:52;;;;;;;;;;;;;;;20.66;63.04;101306.94;5045939;28;1259;-58
2021/04/22 04:01:18;;;;;;;;;;;;;;;20.37;63.56;101303.22;5044532;28;1439;-58
2021/04/22 04:03:44;;;;;;;;;;;;;;;20.24;63.01;101300.72;5041154;28;1741;-58
2021/04/22 04:06:10;;;;;;;;;;;;;;;20.16;64.12;101313.97;5044455;28;1622;-58
2021/04/22 04:08:36;;;;;;;;;;;;;;;20.07;63.98;101299.47;5045834;28;1598;-58
2021/04/22 04:11:02;;;;;;;;;;;;;;;20.12;63.23;101310.69;5043956;28;1635;-58
2021/04/22 04:13:29;;;;;;;;;;;;;;;20.53;62.04;101321.56;5045535;28;1987;-58
2021/04/22 04:15:55;;;;;;;;;;;;;;;21.57;58.77;101317.78;5046324;28;1052;-58
2021/04/22 04:18:22;;;;;;;;;;;;;;;22.19;57.59;101314.84;5046683;28;1709;-58
2021/04/22 04:20:48;;;;;;;;;;;;;;;22.77;55.49;101320.13;5052772;28;1402;-58
2021/04/22 04:23:15;;;;;;;;;;;;;;;23.14;54.35;101315.75;5044389;28;1306;-58
2021/04/22 04:25:41;;;;;;;;;;;;;;;23.21;54.40;101314.16;5045907;28;1886;-58
2021/04/22 04:28:07;;;;;;;;;;;;;;;22.90;54.66;101311.72;5045928;28;1218;-58
2021/04/22 04:30:34;;;;;;;;;;;;;;;22.04;56.72;101335.94;5045809;28;1490;-58
2021/04/22 04:33:01;;;;;;;;;;;;;;;20.93;60.04;101351.25;5043660;28;1605;-58
2021/04/22 04:35:27;;;;;;;;;;;;;;;20.45;61.46;101320.41;5035807;28;1906;-58
2021/04/22 04:37:53;;;;;;;;;;;;;;;20.48;62.45;101339.91;5048749;28;1449;-58
2021/04/22 04:40:19;;;;;;;;;;;;;;;21.42;59.74;101341.50;5045383;28;1752;-59
2021/04/22 04:42:45;;;;;;;;;;;;;;;22.22;57.61;101358.50;5044391;28;1713;-59
2021/04/22 04:45:13;;;;;;;;;;;;;;;22.47;56.44;101334.69;5034502;28;1536;-59
2021/04/22 04:47:40;;;;;;;;;;;;;;;22.43;56.39;101322.50;5050041;28;1528;-59
2021/04/22 04:50:07;;;;;;;;;;;;;;;21.81;57.78;101321.94;5042923;28;1076;-59
2021/04/22 04:52:33;;;;;;;;;;;;;;;21.66;57.93;101332.25;5035912;28;10833;-59
2021/04/22 04:54:59;;;;;;;;;;;;;;;21.14;59.23;101340.41;5047849;28;1906;-57
2021/04/22 04:57:25;;;;;;;;;;;;;;;21.04;59.60;101335.00;5046405;28;1263;-58
2021/04/22 04:59:51;;;;;;;;;;;;;;;20.96;59.26;101332.13;5038782;28;1371;-59
2021/04/22 05:02:17;;;;;;;;;;;;;;;20.89;59.95;101333.69;5042785;28;1444;-58
2021/04/22 05:04:44;;;;;;;;;;;;;;;20.98;60.07;101342.78;5043207;28;1587;-57
2021/04/22 05:07:10;;;;;;;;;;;;;;;21.05;60.28;101350.16;5039170;28;11175;-59
2021/04/22 05:09:37;;;;;;;;;;;;;;;21.05;60.50;101334.03;5045264;28;1467;-58
2021/04/22 05:12:04;;;;;;;;;;;;;;;21.03;60.08;101346.75;5044535;28;1305;-57
2021/04/22 05:14:30;;;;;;;;;;;;;;;21.08;60.95;101345.50;5044308;28;1898;-58
2021/04/22 05:16:56;;;;;;;;;;;;;;;21.06;60.59;101354.53;5038405;28;1559;-59
2021/04/22 05:19:22;;;;;;;;;;;;;;;21.04;61.00;101337.69;5052857;28;1101;-59
2021/04/22 05:21:49;;;;;;;;;;;;;;;20.96;61.40;101334.84;5048357;28;1467;-60
2021/04/22 05:24:15;;;;;;;;;;;;;;;20.95;61.01;101333.16;5045361;28;1384;-60
2021/04/22 05:26:41;;;;;;;;;;;;;;;20.71;60.01;101343.31;5043116;28;1273;-61
2021/04/22 05:29:07;;;;;;;;;;;;;;;20.77;61.55;101342.78;5044438;28;1571;-61
2021/04/22 05:31:33;;;;;;;;;;;;;;;20.90;61.58;101335.38;5042409;28;1426;-61
2021/04/22 05:34:00;;;;;;;;;;;;;;;20.87;61.14;101327.59;5037651;28;1902;-58
2021/04/22 05:36:26;;;;;;;;;;;;;;;20.81;62.01;101346.91;5045576;28;1542;-60
2021/04/22 05:38:53;;;;;;;;;;;;;;;20.73;61.54;101344.91;5038389;28;1375;-60
2021/04/22 05:41:19;;;;;;;;;;;;;;;20.66;62.63;101357.16;5040980;28;1563;-60
2021/04/22 05:43:45;;;;;;;;;;;;;;;20.61;62.78;101357.56;5045383;28;1485;-60
2021/04/22 05:46:11;;;;;;;;;;;;;;;20.59;62.84;101353.28;5045252;28;1325;-60
2021/04/22 05:48:38;;;;;;;;;;;;;;;20.59;62.65;101351.47;5039792;28;1440;-60
2021/04/22 05:51:04;;;;;;;;;;;;;;;20.56;62.68;101351.69;5038298;28;1343;-60
2021/04/22 05:53:30;;;;;;;;;;;;;;;20.36;62.64;101333.75;5041242;28;1384;-58
2021/04/22 05:55:57;;;;;;;;;;;;;;;20.56;63.00;101373.19;5043937;28;1967;-58
2021/04/22 05:58:24;;;;;;;;;;;;;;;20.58;62.51;101356.94;5042991;28;1445;-58
2021/04/22 06:00:51;;;;;;;;;;;;;;;20.59;62.43;101358.66;5043426;28;1543;-58
2021/04/22 06:03:17;;;;;;;;;;;;;;;20.60;62.69;101366.59;5042429;28;1542;-60
2021/04/22 06:05:43;;;;;;;;;;;;;;;20.61;62.45;101357.56;5046826;28;1211;-62
2021/04/22 06:08:09;;;;;;;;;;;;;;;20.62;62.87;101356.56;5045613;28;1247;-59
2021/04/22 06:10:35;;;;;;;;;;;;;;;20.70;62.29;101366.66;5042367;28;1357;-60
2021/04/22 06:13:02;;;;;;;;;;;;;;;20.65;63.15;101364.38;5045081;28;1571;-59
2021/04/22 06:15:28;;;;;;;;;;;;;;;20.58;62.84;101368.53;5046898;28;2011;-59
2021/04/22 06:17:54;;;;;;;;;;;;;;;20.54;62.75;101367.09;5039605;28;1319;-59
2021/04/22 06:20:21;;;;;;;;;;;;;;;20.49;63.00;101369.31;5034431;28;1470;-62
2021/04/22 06:22:47;;;;;;;;;;;;;;;20.46;63.27;101364.22;5040447;28;2257;-59
2021/04/22 06:25:14;;;;;;;;;;;;;;;20.42;63.93;101378.91;5040801;28;1579;-59
2021/04/22 06:27:40;;;;;;;;;;;;;;;20.41;63.65;101366.44;5038568;28;1578;-62
2021/04/22 06:30:08;;;;;;;;;;;;;;;20.41;63.74;101369.13;5041025;28;1447;-62
2021/04/22 06:32:35;;;;;;;;;;;;;;;20.44;63.54;101368.88;5041655;28;1422;-61
2021/04/22 06:35:01;;;;;;;;;;;;;;;20.41;63.98;101363.75;5032565;28;1993;-60
2021/04/22 06:37:27;;;;;;;;;;;;;;;20.43;63.67;101353.72;5029623;28;1594;-59
2021/04/22 06:39:53;;;;;;;;;;;;;;;20.41;63.38;101355.69;5029738;28;1408;-60
2021/04/22 06:42:19;;;;;;;;;;;;;;;20.41;63.91;101370.00;5036473;28;1410;-59
2021/04/22 06:44:46;;;;;;;;;;;;;;;20.43;63.77;101373.41;5040639;28;1340;-59
2021/04/22 06:47:13;;;;;;;;;;;;;;;20.45;64.10;101374.13;5041865;28;1245;-63
2021/04/22 06:49:39;;;;;;;;;;;;;;;20.39;64.37;101374.66;5045147;28;1289;-63
2021/04/22 06:52:05;;;;;;;;;;;;;;;20.34;63.75;101360.75;5038026;28;1685;-56
2021/04/22 06:54:31;;;;;;;;;;;;;;;20.36;63.73;101368.69;5035565;28;1975;-58
2021/04/22 06:56:57;;;;;;;;;;;;;;;20.37;64.25;101359.63;5033825;28;1176;-58
2021/04/22 06:59:23;;;;;;;;;;;;;;;20.39;63.87;101357.66;5035352;28;1417;-60
2021/04/22 07:01:49;;;;;;;;;;;;;;;20.46;63.51;101374.97;5042587;28;1462;-61
2021/04/22 07:04:16;;;;;;;;;;;;;;;20.40;64.26;101376.34;5034669;28;1356;-59
2021/04/22 07:06:42;;;;;;;;;;;;;;;20.40;63.62;101367.44;5044437;28;1519;-60
2021/04/22 07:09:08;;;;;;;;;;;;;;;20.41;64.29;101367.31;5042381;28;1435;-60
2021/04/22 07:11:34;;;;;;;;;;;;;;;20.39;64.35;101371.09;5042069;28;1428;-67
2021/04/22 07:14:00;;;;;;;;;;;;;;;20.41;63.74;101371.81;5042438;28;1984;-61
2021/04/22 07:16:26;;;;;;;;;;;;;;;20.37;64.46;101356.94;5046409;28;1392;-73
2021/04/22 07:18:53;;;;;;;;;;;;;;;20.40;64.58;101378.19;5045875;28;1601;-64
2021/04/22 07:21:20;;;;;;;;;;;;;;;20.40;64.20;101370.13;5041889;28;1384;-60
2021/04/22 07:23:46;;;;;;;;;;;;;;;20.37;64.16;101360.50;5041760;28;1349;-75
2021/04/22 07:26:12;;;;;;;;;;;;;;;20.39;64.14;101363.03;5046178;28;1137;-61
2021/04/22 07:28:38;;;;;;;;;;;;;;;20.36;63.61;101353.41;5036741;28;1308;-61
2021/04/22 07:31:04;;;;;;;;;;;;;;;20.35;64.03;101350.84;5047374;28;1332;-63
2021/04/22 07:33:30;;;;;;;;;;;;;;;20.37;64.64;101371.25;5049392;28;1154;-64
2021/04/22 07:35:56;;;;;;;;;;;;;;;20.36;64.85;101368.69;5048076;28;2000;-64
2021/04/22 07:38:23;;;;;;;;;;;;;;;20.37;64.81;101368.56;5046169;28;1394;-63
2021/04/22 07:40:49;;;;;;;;;;;;;;;20.37;64.07;101367.69;5045407;28;1415;-63
2021/04/22 07:43:15;;;;;;;;;;;;;;;20.35;64.39;101369.63;5049628;28;1371;-63
2021/04/22 07:45:42;;;;;;;;;;;;;;;20.35;64.39;101366.94;5042884;28;1422;-63
2021/04/22 07:48:09;;;;;;;;;;;;;;;20.36;65.27;101379.41;5045167;28;1674;-63
2021/04/22 07:50:35;;;;;;;;;;;;;;;20.32;65.37;101368.06;5031424;28;1872;-63
2021/04/22 07:53:05;;;;;;;;;;;;;;;20.31;64.51;101363.66;5042170;28;1086;-63
2021/04/22 07:55:33;;;;;;;;;;;;;;;20.33;64.80;101368.91;5045974;28;1960;-63
2021/04/22 07:57:59;;;;;;;;;;;;;;;20.29;65.47;101362.09;5045473;28;1313;-63
2021/04/22 08:00:26;;;;;;;;;;;;;;;20.30;65.06;101379.94;5039958;28;1610;-62
2021/04/22 08:02:52;;;;;;;;;;;;;;;20.31;64.96;101365.50;5035643;28;1494;-65
2021/04/22 08:05:19;;;;;;;;;;;;;;;20.31;65.11;101370.88;5041312;28;1063;-63
2021/04/22 08:07:45;;;;;;;;;;;;;;;20.36;64.38;101374.03;5049874;28;1549;-64
2021/04/22 08:10:12;;;;;;;;;;;;;;;20.33;64.98;101374.28;5046941;28;1610;-62
2021/04/22 08:12:39;;;;;;;;;;;;;;;20.28;64.58;101366.63;5041541;28;1666;-62
2021/04/22 08:15:08;;;;;;;;;;;;;;;20.31;64.88;101373.56;5039388;28;1925;-76
2021/04/22 08:17:34;;;;;;;;;;;;;;;20.34;64.54;101382.22;5040678;28;1505;-64
2021/04/22 08:20:05;;;;;;;;;;;;;;;20.33;64.20;101375.13;5051418;28;1099;-62
2021/04/22 08:22:31;;;;;;;;;;;;;;;20.24;64.32;101374.09;5042592;28;1725;-62
2021/04/22 08:24:57;;;;;;;;;;;;;;;20.24;63.94;101374.09;5044191;28;1255;-62
2021/04/22 08:27:23;;;;;;;;;;;;;;;20.22;64.10;101376.06;5044198;28;1674;-65
2021/04/22 08:29:50;;;;;;;;;;;;;;;20.23;63.66;101376.91;5040229;28;1371;-66
2021/04/22 08:32:16;;;;;;;;;;;;;;;20.20;63.92;101377.16;5041244;28;1475;-62
2021/04/22 08:34:43;;;;;;;;;;;;;;;20.19;64.32;101379.00;5039151;28;1930;-62
2021/04/22 08:37:09;;;;;;;;;;;;;;;20.18;63.99;101382.66;5039128;28;1680;-63
2021/04/22 08:39:35;;;;;;;;;;;;;;;20.16;64.66;101376.56;5041085;28;1571;-65
2021/04/22 08:42:01;;;;;;;;;;;;;;;20.14;64.43;101389.28;5041580;28;1752;-63
2021/04/22 08:44:27;;;;;;;;;;;;;;;20.16;64.62;101389.16;5041782;28;1419;-62
2021/04/22 08:46:54;;;;;;;;;;;;;;;20.11;64.17;101378.78;5042593;28;1442;-65
2021/04/22 08:49:20;;;;;;;;;;;;;;;20.18;63.77;101382.66;5049999;28;1226;-62
2021/04/22 08:51:47;;;;;;;;;;;;;;;20.16;64.18;101373.88;5045034;28;1757;-65
2021/04/22 08:54:14;;;;;;;;;;;;;;;20.14;63.54;101370.47;5048977;28;1898;-62
2021/04/22 08:56:40;;;;;;;;;;;;;;;20.12;64.21;101374.28;5045316;28;1402;-65
2021/04/22 08:59:06;;;;;;;;;;;;;;;20.09;63.97;101371.84;5040474;28;987;-62
2021/04/22 09:01:32;;;;;;;;;;;;;;;20.08;64.04;101371.00;5047438;28;1553;-62
2021/04/22 09:04:01;;;;;;;;;;;;;;;20.05;64.47;101373.91;5048412;28;1262;-62
2021/04/22 09:06:27;;;;;;;;;;;;;;;20.05;63.95;101366.75;5042731;28;1404;-62
2021/04/22 09:08:53;;;;;;;;;;;;;;;20.04;64.09;101366.84;5045988;28;1613;-65
2021/04/22 09:11:20;;;;;;;;;;;;;;;20.03;64.16;101365.13;5046010;28;1427;-62
2021/04/22 09:13:46;;;;;;;;;;;;;;;20.01;64.98;101359.03;5045522;28;1360;-62
2021/04/22 09:16:13;;;;;;;;;;;;;;;20.00;64.44;101357.34;5044120;28;1906;-62
2021/04/22 09:18:41;;;;;;;;;;;;;;;19.99;64.35;101366.38;5047567;28;1341;-65
2021/04/22 09:21:16;;;;;;;;;;;;;;;19.99;64.23;101361.00;5046832;28;1340;-65
2021/04/22 09:23:54;;;;;;;;;;;;;;;19.98;64.67;101360.16;5048518;28;1371;-66
2021/04/22 09:26:22;;;;;;;;;;;;;;;19.96;64.38;101345.16;5049650;28;1359;-65
2021/04/22 09:28:48;;;;;;;;;;;;;;;19.96;64.83;101353.22;5050807;28;1431;-65
2021/04/22 09:31:24;;;;;;;;;;;;;;;19.95;64.51;101348.81;5043234;28;1501;-65
2021/04/22 09:34:01;;;;;;;;;;;;;;;19.96;64.62;101350.53;5039264;28;1488;-65
2021/04/22 09:36:37;;;;;;;;;;;;;;;19.93;64.82;101357.00;5049299;28;1388;-66
2021/04/22 09:39:05;;;;;;;;;;;;;;;19.93;65.14;101348.09;5047651;28;1474;-65
2021/04/22 09:41:31;;;;;;;;;;;;;;;19.92;64.48;101341.88;5049684;28;1372;-65
2021/04/22 09:44:00;;;;;;;;;;;;;;;19.90;64.52;101349.22;5049417;28;1838;-65
2021/04/22 09:46:26;;;;;;;;;;;;;;;19.90;64.71;101343.00;5043111;28;1303;-65
2021/04/22 09:48:52;;;;;;;;;;;;;;;19.90;64.58;101345.69;5051079;28;1061;-65
2021/04/22 09:51:26;;;;;;;;;;;;;;;19.92;65.07;101338.34;5048866;28;1442;-72
2021/04/22 09:54:02;;;;;;;;;;;;;;;19.92;64.42;101333.00;5050968;28;1318;-66
2021/04/22 09:56:38;;;;;;;;;;;;;;;19.90;64.13;101334.94;5048968;28;1531;-66
2021/04/22 09:59:05;;;;;;;;;;;;;;;19.92;62.83;101327.63;5044751;28;1300;-62
2021/04/22 10:01:31;;;;;;;;;;;;;;;19.87;63.51;101333.34;5047374;28;1542;-62
2021/04/22 10:03:57;;;;;;;;;;;;;;;19.84;63.79;101330.94;5045004;28;1736;-66
2021/04/22 10:06:23;;;;;;;;;;;;;;;19.84;63.42;101325.56;5052850;28;1457;-66
2021/04/22 10:08:50;;;;;;;;;;;;;;;19.79;63.59;101330.44;5049597;28;1387;-65
2021/04/22 10:11:17;;;;;;;;;;;;;;;19.79;62.89;101320.56;5050346;28;1359;-62
2021/04/22 10:13:44;;;;;;;;;;;;;;;19.86;62.40;101328.97;5047632;28;1369;-62
2021/04/22 10:16:10;;;;;;;;;;;;;;;19.87;62.14;101333.34;5044141;28;1910;-61
2021/04/22 10:18:36;;;;;;;;;;;;;;;19.94;62.19;101331.03;5046861;28;1337;-62
2021/04/22 10:21:02;;;;;;;;;;;;;;;19.95;62.03;101328.19;5048871;28;1346;-61
2021/04/22 10:23:30;;;;;;;;;;;;;;;19.93;62.17;101330.16;5043011;28;1463;-61
2021/04/22 10:25:56;;;;;;;;;;;;;;;19.91;62.00;101318.69;5051055;28;1609;-61
2021/04/22 10:28:23;;;;;;;;;;;;;;;19.89;62.90;101317.13;5047524;28;1293;-61
2021/04/22 10:30:51;;;;;;;;;;;;;;;19.92;62.48;101312.34;5051533;28;1501;-60
2021/04/22 10:33:18;;;;;;;;;;;;;;;19.89;62.86;101319.81;5048809;28;1549;-62
2021/04/22 10:35:44;;;;;;;;;;;;;;;19.90;63.09;101316.16;5049842;28;1906;-61
2021/04/22 10:38:11;;;;;;;;;;;;;;;19.90;62.52;101321.53;5047405;28;1391;-63
2021/04/22 10:40:38;;;;;;;;;;;;;;;19.89;62.50;101317.97;5050697;28;1215;-68
2021/04/22 10:43:05;;;;;;;;;;;;;;;19.89;62.86;101312.59;5039344;28;1745;-67
2021/04/22 10:45:32;;;;;;;;;;;;;;;19.90;62.85;101316.16;5046055;28;1546;-62
2021/04/22 10:47:59;;;;;;;;;;;;;;;19.89;62.89;101319.81;5042776;28;1685;-63
2021/04/22 10:50:26;;;;;;;;;;;;;;;19.88;63.52;101310.06;5040707;28;1875;-62
2021/04/22 10:52:53;;;;;;;;;;;;;;;19.88;63.19;101310.06;5047904;28;1269;-62
2021/04/22 10:55:21;;;;;;;;;;;;;;;19.86;63.36;101302.97;5049672;28;1971;-66
2021/04/22 10:57:47;;;;;;;;;;;;;;;19.86;63.05;101302.13;5047894;28;1708;-69
2021/04/22 11:00:14;;;;;;;;;;;;;;;19.95;62.42;101300.50;5047527;28;1430;-60
2021/04/22 11:02:43;;;;;;;;;;;;;;;19.96;63.04;101299.53;5050572;28;1570;-61
2021/04/22 11:05:25;;;;;;;;;;;;;;;19.97;62.45;101299.38;5048886;28;1348;-60
2021/04/22 11:08:03;;;;;;;;;;;;;;;19.91;62.42;101291.00;5049093;28;1448;-60
2021/04/22 11:10:36;;;;;;;;;;;;;;;19.86;62.71;101292.25;5046113;28;1169;-61
2021/04/22 11:13:09;;;;;;;;;;;;;;;19.85;62.50;101290.53;5053849;28;1735;-60
2021/04/22 11:15:35;;;;;;;;;;;;;;;19.82;63.13;101277.38;5050099;28;1914;-61
2021/04/22 11:18:09;;;;;;;;;;;;;;;19.83;62.86;101280.91;5047591;28;1608;-70
2021/04/22 11:20:38;;;;;;;;;;;;;;;19.80;63.35;101281.19;5038853;28;1487;-70
2021/04/22 11:23:11;;;;;;;;;;;;;;;19.79;63.37;101274.94;5046379;28;1395;-60
2021/04/22 11:25:45;;;;;;;;;;;;;;;19.79;62.67;101274.09;5055363;28;1376;-61
2021/04/22 11:28:11;;;;;;;;;;;;;;;19.77;63.59;101271.53;5051675;28;1040;-69
2021/04/22 11:30:38;;;;;;;;;;;;;;;19.80;63.12;101270.44;5049573;28;1834;-60
2021/04/22 11:33:04;;;;;;;;;;;;;;;19.78;63.49;101262.53;5048508;28;1163;-60
2021/04/22 11:35:31;;;;;;;;;;;;;;;19.79;63.65;101253.47;5037594;28;1993;-61
2021/04/22 11:38:04;;;;;;;;;;;;;;;19.77;63.40;101254.59;5048854;28;1066;-70
2021/04/22 11:40:36;;;;;;;;;;;;;;;19.81;63.11;101269.44;5046449;28;1293;-70
2021/04/22 11:43:03;;;;;;;;;;;;;;;19.80;63.13;101262.41;5045303;28;1455;-70
2021/04/22 11:45:31;;;;;;;;;;;;;;;19.78;63.38;101250.94;5045331;28;1425;-70
2021/04/22 11:47:58;;;;;;;;;;;;;;;19.78;63.10;101254.47;5046815;28;1648;-61
2021/04/22 11:50:25;;;;;;;;;;;;;;;19.76;62.68;101259.13;5056207;28;1236;-70
2021/04/22 11:52:54;;;;;;;;;;;;;;;19.76;63.15;101259.13;5053421;28;1112;-61
2021/04/22 11:55:22;;;;;;;;;;;;;;;19.78;63.40;101253.63;5050503;28;1985;-70
2021/04/22 11:57:52;;;;;;;;;;;;;;;19.77;63.22;101250.06;5053139;28;1423;-70
2021/04/22 12:00:19;;;;;;;;;;;;;;;19.76;63.80;101248.38;5053513;28;1387;-70
2021/04/22 12:02:46;;;;;;;;;;;;;;;19.77;63.18;101255.44;5056253;28;1526;-70
2021/04/22 12:05:15;;;;;;;;;;;;;;;19.77;63.70;101233.13;5047507;28;1011;-70
2021/04/22 12:07:41;;;;;;;;;;;;;;;19.75;63.46;101248.50;5047868;28;1713;-69
2021/04/22 12:10:11;;;;;;;;;;;;;;;19.77;62.92;101250.06;5044293;28;1760;-61
2021/04/22 12:12:37;;;;;;;;;;;;;;;19.76;63.30;101243.00;5044606;28;1613;-70
2021/04/22 12:15:04;;;;;;;;;;;;;;;19.76;63.39;101240.31;5053524;28;1989;-70
2021/04/22 12:17:31;;;;;;;;;;;;;;;19.74;63.27;101228.88;5050310;28;1589;-70
2021/04/22 12:19:58;;;;;;;;;;;;;;;19.77;63.19;101238.50;5057509;28;1448;-60
2021/04/22 12:22:29;;;;;;;;;;;;;;;19.72;62.94;101219.25;5048791;28;1685;-61
2021/04/22 12:24:55;;;;;;;;;;;;;;;19.74;62.79;101239.59;5045721;28;1478;-61
2021/04/22 12:27:33;;;;;;;;;;;;;;;19.73;63.36;101231.69;5045111;28;1586;-70
2021/04/22 12:29:59;;;;;;;;;;;;;;;19.73;62.82;101226.31;5046642;28;1545;-70
2021/04/22 12:32:25;;;;;;;;;;;;;;;19.71;63.02;101223.75;5049344;28;1485;-70
2021/04/22 12:34:51;;;;;;;;;;;;;;;19.73;62.82;101229.84;5044014;28;1911;-70
2021/04/22 12:37:17;;;;;;;;;;;;;;;19.69;63.00;101217.63;5051803;28;1753;-70
2021/04/22 12:39:46;;;;;;;;;;;;;;;19.67;63.17;101219.59;5050405;28;1319;-61
2021/04/22 12:42:13;;;;;;;;;;;;;;;19.69;62.85;101231.03;5046753;28;1792;-70
2021/04/22 12:44:42;;;;;;;;;;;;;;;19.67;63.02;101208.84;5051422;28;1353;-61
2021/04/22 12:47:10;;;;;;;;;;;;;;;19.65;63.08;101214.34;5049024;28;1545;-61